Time;durP1;ratioP1;P1;durP2;ratioP2;P2;SDS_P1;SDS_P2;PMS_P1;PMS_P2;Temp;Humidity;BMP_temperature;BMP_pressure;BME280_temperature;BME280_humidity;BME280_pressure;Samples;Min_cycle;Max_cycle;Signal;HPM_P1;HPM_P2
2022/10/12 00:01:01;;;;;;;12.13;5.40;;;18.30;77.70;;;;;;4982330;28;20937;-83
2022/10/12 00:03:29;;;;;;;9.80;4.80;;;18.30;78.20;;;;;;4977353;28;20615;-83
2022/10/12 00:06:05;;;;;;;10.07;5.00;;;18.20;78.00;;;;;;4981733;28;20223;-83
2022/10/12 00:08:35;;;;;;;10.57;5.43;;;18.30;78.00;;;;;;4978729;28;20221;-82
2022/10/12 00:11:04;;;;;;;10.53;5.77;;;18.20;77.80;;;;;;4981958;28;20620;-83
2022/10/12 00:13:33;;;;;;;10.07;4.93;;;18.20;77.80;;;;;;4977402;28;20565;-82
2022/10/12 00:16:03;;;;;;;10.43;4.90;;;18.20;77.80;;;;;;4981741;28;20220;-83
2022/10/12 00:18:32;;;;;;;15.43;5.03;;;18.20;77.70;;;;;;4980246;28;20229;-83
2022/10/12 00:21:02;;;;;;;10.57;5.13;;;18.20;77.60;;;;;;4972514;28;20670;-82
2022/10/12 00:23:30;;;;;;;10.50;4.47;;;18.30;77.70;;;;;;4976551;28;20284;-84
2022/10/12 00:26:04;;;;;;;10.90;5.53;;;18.20;77.50;;;;;;4972415;28;20202;-83
2022/10/12 00:28:32;;;;;;;12.60;5.00;;;18.30;77.70;;;;;;4983122;28;20390;-84
2022/10/12 00:31:02;;;;;;;12.70;5.83;;;18.20;77.50;;;;;;4967144;28;20194;-84
2022/10/12 00:33:30;;;;;;;15.67;5.17;;;18.20;77.50;;;;;;4969487;28;20217;-83
2022/10/12 00:35:58;;;;;;;11.97;5.60;;;18.20;77.50;;;;;;4978818;28;20292;-82
2022/10/12 00:38:26;;;;;;;11.47;4.73;;;18.20;77.50;;;;;;4983620;28;20255;-83
2022/10/12 00:40:55;;;;;;;14.33;4.97;;;18.20;77.50;;;;;;4979180;28;20710;-84
2022/10/12 00:43:33;;;;;;;11.60;5.47;;;18.20;77.40;;;;;;4972826;28;20225;-84
2022/10/12 00:46:03;;;;;;;11.63;5.77;;;18.20;77.40;;;;;;4977348;28;20544;-84
2022/10/12 00:48:31;;;;;;;13.97;5.23;;;18.20;77.40;;;;;;4976449;28;20219;-83
2022/10/12 00:51:02;;;;;;;10.80;4.67;;;18.20;77.30;;;;;;4984176;28;20642;-83
2022/10/12 00:53:35;;;;;;;11.67;5.00;;;18.10;77.40;;;;;;4979594;28;20247;-84
2022/10/12 00:56:10;;;;;;;12.30;4.73;;;18.10;77.50;;;;;;4978480;28;20609;-82
2022/10/12 00:58:40;;;;;;;12.47;4.70;;;18.10;77.50;;;;;;4968704;28;20718;-84
2022/10/12 01:01:09;;;;;;;12.40;5.20;;;18.10;77.50;;;;;;4980704;28;20429;-84
2022/10/12 01:03:38;;;;;;;10.63;4.73;;;18.10;77.50;;;;;;4984069;28;20267;-84
2022/10/12 01:06:07;;;;;;;15.23;5.30;;;18.00;77.50;;;;;;4984186;28;20224;-83
2022/10/12 01:08:36;;;;;;;12.30;5.47;;;18.00;77.70;;;;;;4988815;28;20227;-81
2022/10/12 01:11:05;;;;;;;11.93;5.20;;;18.00;78.10;;;;;;4983127;28;20248;-81
2022/10/12 01:13:34;;;;;;;11.80;5.90;;;18.00;78.30;;;;;;4975604;28;20198;-81
2022/10/12 01:16:11;;;;;;;12.23;5.57;;;18.00;78.80;;;;;;4977019;28;20271;-82
2022/10/12 01:18:45;;;;;;;11.20;5.50;;;18.00;78.80;;;;;;4974094;28;20229;-82
2022/10/12 01:21:19;;;;;;;11.57;5.40;;;17.90;79.10;;;;;;4980986;28;20259;-82
2022/10/12 01:24:30;;;;;;;11.40;6.13;;;17.90;79.40;;;;;;4975646;28;20293;-81
2022/10/12 01:27:07;;;;;;;14.30;5.47;;;17.90;79.70;;;;;;4953439;28;20224;-82
2022/10/12 01:29:54;;;;;;;12.83;6.00;;;17.80;80.00;;;;;;4980544;28;20189;-81
2022/10/12 01:32:26;;;;;;;14.27;5.70;;;17.80;80.40;;;;;;4981241;28;20198;-79
2022/10/12 01:35:02;;;;;;;12.43;6.03;;;17.80;80.80;;;;;;4989697;28;20221;-82
2022/10/12 01:37:37;;;;;;;22.80;5.60;;;17.80;80.80;;;;;;4980866;28;20243;-82
2022/10/12 01:40:12;;;;;;;14.20;6.50;;;17.70;81.40;;;;;;4976977;28;21759;-81
2022/10/12 01:42:43;;;;;;;11.70;6.00;;;17.70;81.60;;;;;;4980794;28;20641;-77
2022/10/12 01:45:15;;;;;;;14.37;6.70;;;17.70;81.60;;;;;;4985734;28;20564;-81
2022/10/12 01:47:47;;;;;;;11.90;6.23;;;17.60;81.70;;;;;;4984780;28;20197;-81
2022/10/12 01:50:17;;;;;;;12.40;6.57;;;17.60;81.90;;;;;;4974618;28;20201;-81
2022/10/12 01:52:57;;;;;;;11.67;6.17;;;17.60;81.90;;;;;;4988737;28;20197;-83
2022/10/12 01:55:38;;;;;;;14.13;6.40;;;17.60;81.80;;;;;;4982504;28;20358;-83
2022/10/12 01:58:27;;;;;;;14.70;6.27;;;17.60;82.00;;;;;;4987943;28;20193;-81
2022/10/12 02:01:05;;;;;;;16.20;6.23;;;17.60;82.20;;;;;;4981202;28;20324;-83
2022/10/12 02:03:40;;;;;;;16.03;6.20;;;17.60;82.50;;;;;;4977848;28;20185;-82
2022/10/12 02:06:13;;;;;;;14.03;5.87;;;17.60;82.40;;;;;;4983380;28;20248;-82
2022/10/12 02:08:46;;;;;;;11.43;5.50;;;17.60;82.30;;;;;;4982090;28;20206;-82
2022/10/12 02:11:17;;;;;;;14.83;5.80;;;17.60;82.60;;;;;;4978536;28;20247;-83
2022/10/12 02:13:51;;;;;;;11.93;6.10;;;17.60;82.50;;;;;;4984117;28;20197;-81
2022/10/12 02:16:24;;;;;;;11.40;5.80;;;17.60;82.50;;;;;;4975937;28;20198;-82
2022/10/12 02:18:54;;;;;;;13.30;6.10;;;17.60;82.60;;;;;;4980288;28;20276;-83
2022/10/12 02:21:27;;;;;;;15.60;6.67;;;17.60;82.90;;;;;;4979833;28;20276;-82
2022/10/12 02:23:57;;;;;;;15.67;6.70;;;17.60;82.90;;;;;;4982975;28;20643;-83
2022/10/12 02:26:27;;;;;;;13.60;6.13;;;17.50;82.90;;;;;;4993689;28;20284;-82
2022/10/12 02:28:58;;;;;;;12.07;6.53;;;17.60;83.00;;;;;;4981261;28;20629;-80
2022/10/12 02:31:35;;;;;;;13.37;6.43;;;17.50;83.10;;;;;;4986908;28;20206;-82
2022/10/12 02:34:10;;;;;;;14.27;6.50;;;17.50;83.00;;;;;;4981511;28;20197;-82
2022/10/12 02:36:43;;;;;;;11.57;6.47;;;17.50;83.20;;;;;;4976160;28;20227;-83
2022/10/12 02:39:16;;;;;;;14.30;6.90;;;17.50;83.30;;;;;;4980403;28;20283;-82
2022/10/12 02:41:49;;;;;;;12.50;6.13;;;17.50;83.30;;;;;;4974263;28;20260;-83
2022/10/12 02:44:21;;;;;;;16.40;6.33;;;17.50;83.30;;;;;;4979658;28;20225;-79
2022/10/12 02:46:52;;;;;;;10.60;5.83;;;17.50;83.20;;;;;;4989952;28;20189;-83
2022/10/12 02:49:23;;;;;;;11.33;5.90;;;17.50;83.30;;;;;;4980293;28;20189;-82
2022/10/12 02:51:51;;;;;;;17.20;6.77;;;17.50;83.40;;;;;;4978158;28;20605;-82
2022/10/12 02:54:20;;;;;;;14.43;6.73;;;17.60;83.50;;;;;;4979342;28;20186;-83
2022/10/12 02:56:48;;;;;;;10.37;5.93;;;17.50;83.60;;;;;;4983658;28;20256;-83
2022/10/12 02:59:18;;;;;;;12.00;6.90;;;17.50;83.60;;;;;;4977281;28;20190;-84
2022/10/12 03:01:46;;;;;;;14.47;6.97;;;17.50;83.70;;;;;;4976478;28;20731;-80
2022/10/12 03:04:16;;;;;;;11.73;6.20;;;17.60;83.70;;;;;;4977802;28;20280;-83
2022/10/12 03:06:45;;;;;;;17.03;6.77;;;17.50;84.50;;;;;;4984827;28;20193;-84
2022/10/12 03:09:13;;;;;;;15.20;6.67;;;17.60;83.80;;;;;;4973165;28;20256;-85
2022/10/12 03:11:43;;;;;;;16.17;6.60;;;17.60;83.80;;;;;;4984076;28;20248;-83
2022/10/12 03:14:12;;;;;;;12.07;5.47;;;17.60;83.90;;;;;;4982520;28;20650;-83
2022/10/12 03:16:40;;;;;;;13.40;6.33;;;17.60;83.90;;;;;;4984410;28;20267;-83
2022/10/12 03:19:09;;;;;;;14.27;6.63;;;17.60;83.90;;;;;;4987638;28;20212;-83
2022/10/12 03:21:38;;;;;;;10.67;5.63;;;17.60;83.90;;;;;;4967743;28;20709;-82
2022/10/12 03:24:07;;;;;;;11.40;5.67;;;17.60;83.90;;;;;;4973819;28;20285;-84
2022/10/12 03:26:35;;;;;;;12.33;5.87;;;17.60;84.00;;;;;;4971955;28;20663;-84
2022/10/12 03:29:04;;;;;;;15.10;5.70;;;17.60;84.10;;;;;;4980703;28;20198;-85
2022/10/12 03:31:32;;;;;;;14.07;5.70;;;17.60;84.10;;;;;;4985711;28;20193;-84
2022/10/12 03:34:00;;;;;;;18.53;6.10;;;17.60;84.10;;;;;;4985636;28;20193;-84
2022/10/12 03:36:29;;;;;;;10.97;5.33;;;17.60;84.10;;;;;;4972852;28;20307;-84
2022/10/12 03:38:59;;;;;;;10.87;5.33;;;17.50;84.10;;;;;;4972840;28;20202;-83
2022/10/12 03:41:27;;;;;;;11.67;5.70;;;17.50;84.00;;;;;;4968867;28;20202;-87
2022/10/12 03:43:55;;;;;;;14.50;5.90;;;17.50;83.90;;;;;;4974519;28;20712;-81
2022/10/12 03:46:24;;;;;;;9.43;4.67;;;17.50;84.00;;;;;;4987133;28;20228;-82
2022/10/12 03:48:52;;;;;;;12.70;5.20;;;17.40;84.00;;;;;;4974443;28;20190;-86
2022/10/12 03:51:20;;;;;;;18.13;5.47;;;17.40;83.90;;;;;;4978259;28;20229;-84
2022/10/12 03:53:49;;;;;;;9.00;4.37;;;17.40;83.90;;;;;;4977863;28;20623;-84
2022/10/12 03:56:18;;;;;;;11.33;5.90;;;17.40;83.80;;;;;;4971233;28;20201;-82
2022/10/12 03:58:47;;;;;;;11.63;5.53;;;17.40;84.70;;;;;;4972611;28;20201;-84
2022/10/12 04:01:15;;;;;;;13.03;5.07;;;17.30;83.80;;;;;;4974684;28;20995;-83
2022/10/12 04:03:43;;;;;;;14.70;5.67;;;17.30;84.00;;;;;;4976240;28;20256;-84
2022/10/12 04:06:11;;;;;;;19.40;9.77;;;17.30;84.20;;;;;;4982834;28;20193;-82
2022/10/12 04:08:40;;;;;;;28.07;15.00;;;17.30;84.40;;;;;;4987069;28;20193;-79
2022/10/12 04:11:08;;;;;;;22.43;12.20;;;17.20;85.50;;;;;;4984581;28;20224;-81
2022/10/12 04:13:37;;;;;;;17.87;9.80;;;17.20;85.70;;;;;;4980999;28;20747;-80
2022/10/12 04:16:07;;;;;;;16.40;8.20;;;17.20;86.30;;;;;;4989706;28;20271;-79
2022/10/12 04:18:36;;;;;;;13.97;6.40;;;17.10;86.30;;;;;;4982766;28;20706;-81
2022/10/12 04:21:09;;;;;;;24.50;9.77;;;17.00;86.90;;;;;;4978603;28;20197;-81
2022/10/12 04:23:37;;;;;;;25.30;11.93;;;17.00;87.20;;;;;;4986104;28;20260;-80
2022/10/12 04:26:05;;;;;;;23.83;11.37;;;17.00;87.60;;;;;;4984778;28;20285;-80
2022/10/12 04:28:34;;;;;;;21.90;8.83;;;16.90;87.50;;;;;;4984237;28;20216;-80
2022/10/12 04:31:04;;;;;;;17.87;8.00;;;16.90;88.00;;;;;;4984196;28;20214;-80
2022/10/12 04:33:32;;;;;;;13.53;7.70;;;16.90;88.30;;;;;;4983780;28;20267;-80
2022/10/12 04:36:00;;;;;;;18.13;7.37;;;16.90;88.50;;;;;;4984494;28;20229;-79
2022/10/12 04:38:28;;;;;;;12.87;5.83;;;16.80;88.40;;;;;;4983989;28;20197;-79
2022/10/12 04:40:57;;;;;;;12.87;6.27;;;16.80;89.20;;;;;;4984532;28;20248;-79
2022/10/12 04:43:25;;;;;;;12.87;6.17;;;16.80;88.30;;;;;;4981746;28;20257;-80
2022/10/12 04:45:55;;;;;;;12.93;6.53;;;16.80;88.40;;;;;;4977592;28;20221;-79
2022/10/12 04:48:26;;;;;;;14.30;6.07;;;16.80;89.00;;;;;;4985646;28;20197;-79
2022/10/12 04:50:54;;;;;;;14.07;6.40;;;16.80;89.40;;;;;;4984489;28;20252;-80
2022/10/12 04:53:22;;;;;;;15.20;7.07;;;16.80;89.90;;;;;;4990173;28;20243;-79
2022/10/12 04:55:51;;;;;;;13.10;6.80;;;16.80;90.00;;;;;;4976836;28;20234;-80
2022/10/12 04:58:19;;;;;;;12.50;5.83;;;16.80;90.00;;;;;;4978090;28;20253;-80
2022/10/12 05:00:48;;;;;;;12.00;6.10;;;16.70;90.00;;;;;;4978610;28;20217;-81
2022/10/12 05:03:16;;;;;;;11.57;6.63;;;16.70;90.00;;;;;;4981039;28;20316;-81
2022/10/12 05:05:46;;;;;;;11.50;7.30;;;16.70;90.40;;;;;;4972585;28;20281;-81
2022/10/12 05:08:14;;;;;;;12.37;5.83;;;16.70;90.40;;;;;;4975274;28;20248;-79
2022/10/12 05:10:45;;;;;;;11.03;5.97;;;16.70;90.40;;;;;;4977434;28;20217;-77
2022/10/12 05:13:13;;;;;;;12.23;5.60;;;16.70;90.30;;;;;;4988180;28;20198;-78
2022/10/12 05:15:42;;;;;;;9.53;5.07;;;16.70;90.50;;;;;;4984176;28;20651;-80
2022/10/12 05:18:10;;;;;;;7.87;5.13;;;16.70;90.40;;;;;;4989367;28;20219;-79
2022/10/12 05:20:39;;;;;;;12.50;5.37;;;16.70;90.50;;;;;;4992762;28;20236;-78
2022/10/12 05:23:10;;;;;;;11.13;5.07;;;16.70;90.60;;;;;;4986289;28;20212;-79
2022/10/12 05:25:39;;;;;;;11.33;6.07;;;16.70;90.70;;;;;;4992999;28;20225;-79
2022/10/12 05:28:07;;;;;;;10.00;6.03;;;16.70;90.70;;;;;;4982784;28;20202;-79
2022/10/12 05:30:35;;;;;;;9.43;5.33;;;16.70;90.60;;;;;;4987210;28;20745;-78
2022/10/12 05:33:04;;;;;;;11.63;6.00;;;16.70;90.50;;;;;;4990218;28;20564;-78
2022/10/12 05:35:32;;;;;;;9.67;4.97;;;16.70;90.50;;;;;;4992023;28;20248;-78
2022/10/12 05:38:00;;;;;;;10.63;5.30;;;16.70;90.50;;;;;;4986766;28;20622;-78
2022/10/12 05:40:30;;;;;;;12.50;4.90;;;16.80;90.60;;;;;;4986860;28;20190;-78
2022/10/12 05:42:58;;;;;;;14.80;5.53;;;16.80;90.50;;;;;;4979834;28;20202;-78
2022/10/12 05:45:26;;;;;;;16.07;5.40;;;16.80;90.70;;;;;;4993881;28;20323;-79
2022/10/12 05:47:55;;;;;;;19.87;5.43;;;16.80;90.70;;;;;;4994268;28;20186;-78
2022/10/12 05:50:23;;;;;;;14.97;5.27;;;16.80;90.70;;;;;;4992292;28;20248;-78
2022/10/12 05:52:51;;;;;;;21.33;5.10;;;16.80;91.00;;;;;;4992704;28;20232;-78
2022/10/12 05:55:19;;;;;;;17.37;6.17;;;16.80;91.00;;;;;;4995220;28;20212;-77
2022/10/12 05:57:49;;;;;;;10.50;4.30;;;16.80;91.00;;;;;;4984804;28;20667;-78
2022/10/12 06:00:20;;;;;;;11.17;4.77;;;16.80;91.00;;;;;;4989206;28;20208;-79
2022/10/12 06:02:50;;;;;;;9.80;4.77;;;16.80;91.10;;;;;;4987252;28;20198;-80
2022/10/12 06:05:19;;;;;;;15.00;4.60;;;16.80;91.00;;;;;;4987771;28;20241;-80
2022/10/12 06:07:47;;;;;;;8.90;4.50;;;16.80;90.90;;;;;;4979600;28;20614;-79
2022/10/12 06:10:15;;;;;;;14.47;4.60;;;16.80;91.00;;;;;;4992144;28;20245;-79
2022/10/12 06:12:44;;;;;;;14.93;5.30;;;16.90;91.00;;;;;;4980930;28;20217;-80
2022/10/12 06:15:13;;;;;;;16.63;5.07;;;16.90;91.00;;;;;;4977815;28;20194;-80
2022/10/12 06:17:42;;;;;;;11.43;5.45;;;16.90;90.90;;;;;;4985266;28;20446;-80
2022/10/12 06:20:11;;;;;;;9.33;4.73;;;17.00;91.10;;;;;;4975993;28;20194;-82
2022/10/12 06:22:39;;;;;;;9.43;4.97;;;16.90;91.00;;;;;;4989396;28;20252;-82
2022/10/12 06:25:09;;;;;;;9.03;4.80;;;17.00;91.00;;;;;;4976420;28;20240;-81
2022/10/12 06:27:37;;;;;;;9.93;4.37;;;16.90;91.20;;;;;;4988797;28;20221;-81
2022/10/12 06:30:06;;;;;;;9.80;5.13;;;17.00;90.70;;;;;;4980968;28;20245;-80
2022/10/12 06:32:36;;;;;;;12.27;5.10;;;17.00;90.70;;;;;;4978752;28;20198;-79
2022/10/12 06:35:06;;;;;;;9.30;4.27;;;17.00;90.60;;;;;;4984204;28;20314;-78
2022/10/12 06:37:37;;;;;;;10.93;5.13;;;17.00;90.50;;;;;;5022934;28;20185;-78
2022/10/12 06:40:30;;;;;;;12.20;4.90;;;17.10;90.40;;;;;;5025185;28;20228;-79
2022/10/12 06:43:01;;;;;;;8.57;4.60;;;17.10;90.30;;;;;;5038470;28;20200;-78
2022/10/12 06:45:30;;;;;;;7.80;4.60;;;17.10;90.20;;;;;;5024278;28;20264;-78
2022/10/12 06:48:00;;;;;;;10.33;5.60;;;17.20;90.50;;;;;;5027442;28;20393;-78
2022/10/12 06:50:28;;;;;;;9.37;4.83;;;17.30;90.20;;;;;;5031494;28;20234;-80
2022/10/12 06:52:57;;;;;;;7.60;4.50;;;17.30;90.10;;;;;;5033759;28;20197;-80
2022/10/12 06:55:25;;;;;;;12.00;4.70;;;17.40;90.00;;;;;;5034243;28;20640;-79
2022/10/12 06:57:55;;;;;;;12.13;4.50;;;17.40;89.70;;;;;;5034357;28;20184;-82
2022/10/12 07:00:23;;;;;;;12.17;4.67;;;17.40;89.30;;;;;;5032302;28;20283;-79
2022/10/12 07:02:53;;;;;;;11.60;5.00;;;17.40;89.10;;;;;;5031835;28;20199;-81
2022/10/12 07:05:24;;;;;;;9.27;4.70;;;17.50;88.90;;;;;;5031323;28;20272;-82
2022/10/12 07:07:52;;;;;;;11.63;4.83;;;17.50;88.70;;;;;;5038382;28;20238;-82
2022/10/12 07:10:20;;;;;;;11.63;4.93;;;17.60;88.50;;;;;;5029945;28;20232;-82
2022/10/12 07:12:49;;;;;;;14.17;4.67;;;17.60;88.50;;;;;;5035329;28;20257;-81
2022/10/12 07:15:17;;;;;;;14.87;5.30;;;17.70;88.40;;;;;;5023414;28;20191;-81
2022/10/12 07:17:46;;;;;;;10.85;4.68;;;17.80;88.40;;;;;;5031498;28;20442;-80
2022/10/12 07:20:14;;;;;;;15.20;5.00;;;17.80;87.60;;;;;;5030687;28;20191;-79
2022/10/12 07:22:44;;;;;;;12.00;4.33;;;17.80;86.90;;;;;;5019913;28;20207;-80
2022/10/12 07:25:12;;;;;;;12.20;4.87;;;17.90;87.00;;;;;;5023608;28;20259;-81
2022/10/12 07:27:41;;;;;;;9.53;4.23;;;17.90;86.40;;;;;;5032053;28;20974;-84
2022/10/12 07:30:11;;;;;;;11.23;4.30;;;18.00;86.50;;;;;;5033075;28;20249;-81
2022/10/12 07:32:41;;;;;;;8.53;4.40;;;18.00;86.50;;;;;;5032596;28;20563;-84
2022/10/12 07:35:09;;;;;;;7.90;4.03;;;18.10;86.30;;;;;;5028180;28;20220;-82
2022/10/12 07:37:38;;;;;;;10.63;4.00;;;18.20;86.10;;;;;;5027713;28;20204;-83
2022/10/12 07:40:09;;;;;;;10.10;4.20;;;18.30;86.00;;;;;;5024941;28;20196;-81
2022/10/12 07:42:37;;;;;;;9.57;4.10;;;18.30;85.90;;;;;;5028270;28;20187;-82
2022/10/12 07:45:27;;;;;;;8.67;4.40;;;18.40;86.70;;;;;;5024657;28;20223;-79
2022/10/12 07:47:56;;;;;;;11.03;4.37;;;18.50;85.40;;;;;;5025118;28;20242;-83
2022/10/12 07:50:25;;;;;;;9.13;4.73;;;18.60;85.30;;;;;;5026681;28;20262;-82
2022/10/12 07:52:53;;;;;;;12.20;4.97;;;18.60;85.00;;;;;;5031292;28;20199;-83
2022/10/12 07:55:23;;;;;;;8.73;4.57;;;18.70;84.70;;;;;;5025202;28;20199;-81
2022/10/12 07:57:51;;;;;;;7.57;4.10;;;18.80;84.80;;;;;;5030706;28;20538;-84
2022/10/12 08:00:21;;;;;;;11.07;5.27;;;18.80;84.40;;;;;;5026097;28;20203;-83
2022/10/12 08:02:49;;;;;;;10.03;4.00;;;18.90;84.10;;;;;;5033313;28;20584;-83
2022/10/12 08:05:20;;;;;;;9.77;5.10;;;19.00;83.90;;;;;;5018873;28;20768;-82
2022/10/12 08:07:48;;;;;;;10.37;4.30;;;19.00;83.50;;;;;;5028109;28;20192;-83
2022/10/12 08:10:17;;;;;;;7.87;4.30;;;19.00;83.00;;;;;;5030381;28;20660;-82
2022/10/12 08:12:47;;;;;;;9.80;4.63;;;19.10;82.70;;;;;;5027892;28;20682;-82
2022/10/12 08:15:19;;;;;;;13.33;4.67;;;19.10;83.30;;;;;;5035787;28;20192;-84
2022/10/12 08:17:48;;;;;;;11.93;5.43;;;19.20;82.70;;;;;;5024657;28;20220;-83
2022/10/12 08:20:16;;;;;;;11.00;4.90;;;19.20;82.20;;;;;;5021699;28;20184;-83
2022/10/12 08:22:44;;;;;;;10.53;4.50;;;19.30;82.20;;;;;;5032832;28;20699;-83
2022/10/12 08:25:13;;;;;;;9.53;4.33;;;19.40;82.20;;;;;;5021202;28;20216;-82
2022/10/12 08:27:41;;;;;;;14.47;5.03;;;19.50;82.20;;;;;;5027168;28;20207;-84
2022/10/12 08:30:12;;;;;;;10.70;4.03;;;19.50;81.40;;;;;;5028697;28;20192;-80
2022/10/12 08:32:41;;;;;;;12.17;4.30;;;19.50;80.20;;;;;;5031786;28;20652;-84
2022/10/12 08:35:09;;;;;;;9.23;4.60;;;19.60;80.70;;;;;;5022939;28;20277;-83
2022/10/12 08:37:37;;;;;;;9.70;4.87;;;19.70;80.80;;;;;;5033003;28;20200;-84
2022/10/12 08:40:10;;;;;;;9.27;5.45;;;19.70;80.70;;;;;;5021373;28;20242;-86
2022/10/12 08:42:45;;;;;;;8.33;4.67;;;19.70;80.30;;;;;;5032258;28;20196;-82
2022/10/12 08:45:30;;;;;;;9.70;5.00;;;19.80;80.20;;;;;;5036804;28;20252;-84
2022/10/12 08:48:05;;;;;;;7.73;4.43;;;19.80;79.80;;;;;;5029581;28;22149;-84
2022/10/12 08:50:35;;;;;;;7.32;3.85;;;19.90;79.90;;;;;;5028711;28;20194;-83
2022/10/12 08:53:21;;;;;;;11.43;4.97;;;19.90;79.70;;;;;;5028933;28;20188;-85
2022/10/12 08:55:51;;;;;;;8.32;3.88;;;19.90;79.40;;;;;;5025366;28;20203;-80
2022/10/12 08:58:21;;;;;;;9.50;3.80;;;20.00;79.40;;;;;;5027986;28;20699;-82
2022/10/12 09:01:03;;;;;;;9.88;4.28;;;20.00;79.40;;;;;;5029721;28;20634;-83
2022/10/12 09:03:47;;;;;;;8.27;4.07;;;20.00;79.70;;;;;;5031298;28;20202;-85
2022/10/12 09:06:18;;;;;;;11.02;3.88;;;20.10;78.70;;;;;;5030367;28;20244;-82
2022/10/12 09:09:02;;;;;;;9.65;4.40;;;20.10;78.20;;;;;;5025589;28;20460;-85
2022/10/12 09:11:46;;;;;;;12.93;4.65;;;20.10;77.50;;;;;;5031332;28;20602;-83
2022/10/12 09:14:18;;;;;;;12.38;4.43;;;20.20;77.50;;;;;;5027142;28;20216;-83
2022/10/12 09:16:52;;;;;;;7.85;4.40;;;20.20;77.30;;;;;;5033956;28;20192;-81
2022/10/12 09:19:24;;;;;;;11.32;4.43;;;20.20;77.50;;;;;;5034377;28;20610;-83
2022/10/12 09:21:52;;;;;;;7.85;4.18;;;20.30;77.60;;;;;;5018245;28;20230;-81
2022/10/12 09:24:25;;;;;;;9.65;4.43;;;20.40;77.50;;;;;;5022451;28;20290;-83
2022/10/12 09:26:59;;;;;;;10.77;4.35;;;20.40;77.40;;;;;;5034556;28;20254;-81
2022/10/12 09:29:37;;;;;;;13.80;4.88;;;20.50;77.40;;;;;;5017368;28;20188;-84
2022/10/12 09:32:42;;;;;;;9.60;4.18;;;20.50;76.90;;;;;;5028110;28;20254;-80
2022/10/12 09:35:13;;;;;;;8.98;3.67;;;20.50;76.80;;;;;;5010494;28;20227;-81
2022/10/12 09:38:01;;;;;;;8.60;4.05;;;20.50;76.70;;;;;;5022372;28;20238;-81
2022/10/12 09:40:32;;;;;;;8.95;4.20;;;20.60;76.60;;;;;;5036202;28;20191;-81
2022/10/12 09:43:03;;;;;;;6.25;3.40;;;20.60;76.40;;;;;;5019766;28;20200;-82
2022/10/12 09:45:34;;;;;;;8.60;3.60;;;20.60;76.40;;;;;;5024262;28;20513;-83
2022/10/12 09:48:18;;;;;;;7.32;3.20;;;20.70;76.20;;;;;;5023181;28;20254;-83
2022/10/12 09:50:50;;;;;;;6.10;3.35;;;20.70;76.00;;;;;;5026814;28;20601;-83
2022/10/12 09:53:32;;;;;;;7.47;3.38;;;20.70;75.80;;;;;;5028358;28;20203;-83
2022/10/12 09:56:07;;;;;;;11.45;4.28;;;20.70;75.10;;;;;;5025631;28;20251;-83
2022/10/12 09:58:50;;;;;;;11.00;3.80;;;20.80;75.40;;;;;;5025124;28;20196;-82
2022/10/12 10:01:22;;;;;;;6.88;3.30;;;20.80;75.30;;;;;;5024989;28;20245;-82
2022/10/12 10:04:13;;;;;;;5.35;2.97;;;20.80;76.10;;;;;;5022174;28;20191;-83
2022/10/12 10:06:43;;;;;;;8.27;3.17;;;20.80;74.30;;;;;;5026499;28;20208;-82
2022/10/12 10:09:29;;;;;;;6.30;3.17;;;20.80;73.50;;;;;;5034259;28;20199;-84
2022/10/12 10:11:58;;;;;;;9.15;3.35;;;20.90;73.70;;;;;;5031055;28;20226;-83
2022/10/12 10:14:26;;;;;;;7.20;3.08;;;20.90;73.80;;;;;;5030590;28;20188;-84
2022/10/12 10:16:54;;;;;;;7.78;3.38;;;21.00;73.60;;;;;;5037021;28;20219;-82
2022/10/12 10:19:25;;;;;;;8.02;3.40;;;21.00;73.60;;;;;;5020464;28;20569;-82
2022/10/12 10:21:55;;;;;;;9.50;2.95;;;21.10;72.40;;;;;;5025251;28;20665;-79
2022/10/12 10:24:27;;;;;;;6.30;2.83;;;21.10;72.60;;;;;;5034993;28;20239;-84
2022/10/12 10:26:57;;;;;;;5.63;3.35;;;21.20;72.80;;;;;;5022710;28;20276;-83
2022/10/12 10:29:35;;;;;;;9.63;3.42;;;21.20;72.50;;;;;;5020109;28;20305;-82
2022/10/12 10:32:23;;;;;;;11.73;3.58;;;21.20;72.20;;;;;;5021990;28;20199;-84
2022/10/12 10:35:04;;;;;;;6.70;3.08;;;21.30;71.70;;;;;;5019731;28;20243;-80
2022/10/12 10:37:34;;;;;;;4.70;2.80;;;21.30;71.40;;;;;;5029780;28;20249;-82
2022/10/12 10:40:02;;;;;;;6.25;3.45;;;21.20;70.90;;;;;;5028223;28;20297;-83
2022/10/12 10:42:33;;;;;;;8.00;3.17;;;21.30;70.80;;;;;;5024572;28;20219;-82
2022/10/12 10:45:05;;;;;;;7.78;3.33;;;21.30;70.70;;;;;;5029542;28;20190;-82
2022/10/12 10:47:41;;;;;;;5.18;3.28;;;21.30;70.20;;;;;;5040879;28;20294;-82
2022/10/12 10:50:25;;;;;;;3.42;2.05;;;21.30;70.00;;;;;;5026822;28;20195;-82
2022/10/12 10:52:57;;;;;;;4.63;2.40;;;21.40;68.90;;;;;;5026424;28;20196;-84
2022/10/12 10:55:31;;;;;;;6.95;2.38;;;21.40;68.70;;;;;;5031497;28;20254;-83
2022/10/12 10:58:04;;;;;;;7.68;3.05;;;21.50;68.50;;;;;;5031020;28;20227;-84
2022/10/12 11:00:35;;;;;;;10.65;3.78;;;21.50;68.20;;;;;;5028301;28;21915;-81
2022/10/12 11:03:16;;;;;;;7.38;2.47;;;21.60;68.30;;;;;;5024611;28;20186;-84
2022/10/12 11:05:54;;;;;;;9.40;2.63;;;21.60;67.80;;;;;;5023513;28;20205;-81
2022/10/12 11:08:26;;;;;;;12.73;2.08;;;21.70;66.50;;;;;;5022105;28;20282;-85
2022/10/12 11:10:59;;;;;;;4.88;1.98;;;21.80;65.30;;;;;;5021289;28;20255;-85
2022/10/12 11:13:33;;;;;;;7.05;2.25;;;21.80;64.60;;;;;;5038503;28;20249;-84
2022/10/12 11:16:08;;;;;;;8.05;2.40;;;21.90;63.40;;;;;;5024425;28;20227;-85
2022/10/12 11:18:40;;;;;;;11.25;3.05;;;22.00;62.90;;;;;;5031236;28;20191;-85
2022/10/12 11:21:15;;;;;;;6.90;2.72;;;22.00;62.60;;;;;;5029566;28;20226;-84
2022/10/12 11:23:49;;;;;;;7.85;2.10;;;22.10;62.80;;;;;;5014692;28;20228;-83
2022/10/12 11:26:26;;;;;;;6.75;2.38;;;22.20;63.00;;;;;;5019995;28;20479;-85
2022/10/12 11:28:58;;;;;;;3.58;1.80;;;22.30;58.50;;;;;;5027701;28;20276;-83
2022/10/12 11:31:32;;;;;;;6.60;2.13;;;22.20;57.80;;;;;;5028912;28;20218;-84
2022/10/12 11:34:04;;;;;;;3.58;2.30;;;22.30;58.40;;;;;;5028643;28;20199;-83
2022/10/12 11:36:43;;;;;;;9.40;2.47;;;22.30;58.30;;;;;;5027729;28;20213;-84
2022/10/12 11:39:37;;;;;;;6.63;2.20;;;22.30;58.70;;;;;;5026842;28;20191;-82
2022/10/12 11:42:10;;;;;;;3.75;1.80;;;22.30;59.20;;;;;;5025440;28;20558;-81
2022/10/12 11:44:54;;;;;;;6.68;1.90;;;22.30;58.90;;;;;;5030928;28;20299;-83
2022/10/12 11:47:32;;;;;;;5.78;1.95;;;22.30;58.00;;;;;;5030998;28;20281;-83
2022/10/12 11:50:03;;;;;;;7.05;2.00;;;22.30;57.60;;;;;;5028934;28;20653;-82
2022/10/12 11:52:38;;;;;;;8.73;2.40;;;22.30;58.20;;;;;;5026275;28;20217;-81
2022/10/12 11:55:27;;;;;;;4.45;2.33;;;22.30;58.20;;;;;;5031785;28;20617;-84
2022/10/12 11:57:59;;;;;;;4.78;2.25;;;22.30;58.50;;;;;;5024691;28;20199;-81
2022/10/12 12:00:44;;;;;;;5.10;2.30;;;22.30;58.80;;;;;;5012895;28;20189;-82
2022/10/12 12:03:19;;;;;;;6.93;3.00;;;22.40;59.00;;;;;;5028258;28;20219;-80
2022/10/12 12:05:47;;;;;;;7.00;2.50;;;22.40;58.90;;;;;;5025422;28;20431;-83
2022/10/12 12:08:45;;;;;;;6.75;2.50;;;22.40;57.80;;;;;;5027914;28;20715;-82
2022/10/12 12:11:21;;;;;;;4.57;2.50;;;22.40;57.80;;;;;;5023162;28;20223;-81
2022/10/12 12:13:49;;;;;;;7.82;2.97;;;22.40;58.00;;;;;;5022932;28;20223;-82
2022/10/12 12:16:31;;;;;;;5.43;2.90;;;22.40;57.50;;;;;;5022158;28;20214;-82
2022/10/12 12:19:37;;;;;;;6.55;3.50;;;22.50;57.80;;;;;;5029167;28;20249;-79
2022/10/12 12:22:33;;;;;;;8.70;2.97;;;22.50;57.40;;;;;;5025957;28;20187;-81
2022/10/12 12:25:23;;;;;;;6.03;3.08;;;22.50;57.50;;;;;;5011131;28;20238;-79
2022/10/12 12:27:54;;;;;;;7.03;2.58;;;22.50;57.80;;;;;;5016814;28;20908;-81
2022/10/12 12:30:41;;;;;;;9.43;2.92;;;22.50;57.90;;;;;;5019963;28;20245;-81
2022/10/12 12:33:33;;;;;;;6.47;2.75;;;22.50;57.80;;;;;;5018618;28;20253;-82
2022/10/12 12:36:05;;;;;;;9.00;3.03;;;22.60;57.80;;;;;;5029766;28;20255;-80
2022/10/12 12:38:35;;;;;;;5.28;2.78;;;22.50;58.00;;;;;;5026550;28;20215;-81
2022/10/12 12:41:09;;;;;;;6.65;3.10;;;22.60;58.20;;;;;;5024274;28;20195;-81
2022/10/12 12:43:56;;;;;;;9.43;2.90;;;22.60;58.00;;;;;;5028552;28;20215;-80
2022/10/12 12:46:46;;;;;;;5.97;3.30;;;22.50;58.00;;;;;;5025582;28;20192;-80
2022/10/12 12:49:29;;;;;;;8.15;2.85;;;22.50;58.00;;;;;;5021115;28;20220;-82
2022/10/12 12:51:58;;;;;;;4.47;2.70;;;22.60;58.10;;;;;;5018432;28;20660;-80
2022/10/12 12:54:27;;;;;;;6.53;2.70;;;22.60;58.20;;;;;;5027077;28;20715;-81
2022/10/12 12:57:28;;;;;;;6.00;3.35;;;22.60;58.30;;;;;;5021727;28;20227;-83
2022/10/12 13:00:20;;;;;;;6.32;2.88;;;22.60;58.30;;;;;;5018547;28;20231;-81
2022/10/12 13:03:11;;;;;;;5.25;2.75;;;22.60;58.40;;;;;;5011186;28;20195;-81
2022/10/12 13:06:21;;;;;;;5.63;2.70;;;22.70;57.80;;;;;;5025526;28;20224;-80
2022/10/12 13:09:29;;;;;;;5.13;2.63;;;22.70;57.40;;;;;;5018003;28;20256;-81